createdAt,value
2022-09-26T00:01:56.367Z,3.70
2022-09-26T00:05:02.192Z,3.90
2022-09-26T00:08:08.520Z,4.00
2022-09-26T00:11:19.101Z,3.70
2022-09-26T00:14:29.088Z,4.00
2022-09-26T00:17:37.309Z,4.18
2022-09-26T00:20:42.967Z,3.70
2022-09-26T00:23:49.343Z,3.78
2022-09-26T00:26:55.373Z,3.70
2022-09-26T00:30:01.168Z,3.70
2022-09-26T00:33:07.830Z,3.35
2022-09-26T00:36:13.600Z,4.00
2022-09-26T00:39:20.383Z,3.13
2022-09-26T00:42:25.969Z,3.47
2022-09-26T00:45:32.139Z,3.33
2022-09-26T00:48:38.220Z,3.05
2022-09-26T00:51:48.942Z,3.08
2022-09-26T00:54:56.644Z,3.38
2022-09-26T00:58:13.355Z,3.20
2022-09-26T01:01:20.235Z,3.40
2022-09-26T01:04:28.633Z,3.53
2022-09-26T01:07:34.821Z,3.63
2022-09-26T01:10:41.105Z,4.10
2022-09-26T01:13:46.945Z,3.50
2022-09-26T01:16:52.765Z,3.38
2022-09-26T01:20:46.145Z,3.38
2022-09-26T01:24:00.842Z,3.28
2022-09-26T01:27:21.985Z,3.20
2022-09-26T01:31:02.331Z,3.10
2022-09-26T01:34:20.983Z,2.85
2022-09-26T01:38:00.041Z,3.00
2022-09-26T01:41:20.523Z,3.72
2022-09-26T01:44:38.700Z,3.33
2022-09-26T01:48:03.488Z,3.13
2022-09-26T01:51:20.740Z,3.53
2022-09-26T01:54:34.107Z,3.65
2022-09-26T01:58:10.411Z,3.58
2022-09-26T02:01:18.112Z,3.47
2022-09-26T02:04:31.762Z,3.47
2022-09-26T02:07:42.074Z,3.47
2022-09-26T02:10:56.536Z,3.30
2022-09-26T02:14:07.750Z,4.03
2022-09-26T02:17:26.653Z,3.85
2022-09-26T02:20:35.530Z,3.67
2022-09-26T02:23:41.729Z,3.25
2022-09-26T02:26:47.661Z,3.47
2022-09-26T02:29:54.726Z,3.03
2022-09-26T02:33:00.432Z,3.10
2022-09-26T02:36:10.466Z,2.97
2022-09-26T02:39:16.125Z,3.10
2022-09-26T02:42:37.071Z,3.45
2022-09-26T02:46:15.707Z,3.17
2022-09-26T02:49:54.362Z,3.53
2022-09-26T02:53:09.580Z,3.63
2022-09-26T02:56:51.363Z,3.20
2022-09-26T03:00:20.001Z,3.63
2022-09-26T03:03:41.242Z,3.70
2022-09-26T03:06:51.351Z,3.53
2022-09-26T03:09:58.807Z,3.60
2022-09-26T03:13:17.369Z,3.08
2022-09-26T03:16:24.682Z,3.50
2022-09-26T03:19:35.431Z,3.60
2022-09-26T03:22:42.600Z,3.33
2022-09-26T03:26:14.089Z,3.33
2022-09-26T03:29:29.675Z,3.50
2022-09-26T03:32:35.476Z,3.40
2022-09-26T03:35:41.602Z,3.30
2022-09-26T03:38:47.208Z,3.85
2022-09-26T03:42:11.778Z,3.15
2022-09-26T03:45:18.863Z,3.80
2022-09-26T03:48:37.773Z,3.30
2022-09-26T03:51:44.429Z,3.35
2022-09-26T03:54:50.314Z,3.42
2022-09-26T03:57:55.971Z,3.00
2022-09-26T04:01:18.117Z,3.20
2022-09-26T04:04:24.395Z,3.30
2022-09-26T04:07:31.917Z,3.17
2022-09-26T04:10:37.587Z,3.33
2022-09-26T04:13:53.745Z,3.03
2022-09-26T04:17:03.695Z,3.30
2022-09-26T04:20:16.629Z,3.00
2022-09-26T04:23:22.641Z,3.53
2022-09-26T04:26:29.277Z,3.08
2022-09-26T04:29:35.067Z,3.30
2022-09-26T04:32:48.594Z,2.90
2022-09-26T04:36:20.395Z,2.90
2022-09-26T04:39:26.476Z,3.55
2022-09-26T04:42:37.061Z,3.60
2022-09-26T04:45:43.725Z,3.85
2022-09-26T04:48:52.694Z,3.60
2022-09-26T04:52:00.124Z,3.90
2022-09-26T04:55:06.166Z,3.83
2022-09-26T04:58:12.453Z,3.95
2022-09-26T05:01:21.204Z,3.65
2022-09-26T05:04:51.265Z,3.47
2022-09-26T05:07:57.792Z,3.42
2022-09-26T05:11:04.157Z,3.22
2022-09-26T05:14:11.040Z,3.50
2022-09-26T05:17:18.330Z,3.50
2022-09-26T05:20:29.242Z,3.67
2022-09-26T05:23:56.606Z,3.60
2022-09-26T05:27:07.400Z,3.75
2022-09-26T05:30:13.592Z,3.55
2022-09-26T05:33:20.053Z,4.07
2022-09-26T05:36:27.681Z,3.50
2022-09-26T05:39:51.299Z,3.75
2022-09-26T05:43:02.459Z,3.72
2022-09-26T05:46:11.291Z,3.53
2022-09-26T05:49:23.442Z,3.55
2022-09-26T05:52:29.563Z,3.50
2022-09-26T05:55:39.957Z,3.38
2022-09-26T05:58:45.771Z,3.58
2022-09-26T06:01:57.215Z,3.47
2022-09-26T06:05:18.345Z,3.72
2022-09-26T06:08:23.841Z,3.97
2022-09-26T06:11:41.698Z,4.88
2022-09-26T06:14:49.285Z,4.53
2022-09-26T06:18:04.579Z,4.78
2022-09-26T06:21:13.515Z,4.80
2022-09-26T06:24:20.469Z,4.60
2022-09-26T06:27:29.531Z,4.90
2022-09-26T06:30:35.555Z,4.40
2022-09-26T06:33:54.602Z,4.30
2022-09-26T06:37:26.621Z,5.18
2022-09-26T06:40:34.026Z,4.68
2022-09-26T06:43:39.883Z,4.70
2022-09-26T06:46:48.497Z,4.70
2022-09-26T06:49:58.340Z,4.88
2022-09-26T06:53:08.106Z,4.32
2022-09-26T06:56:18.734Z,4.90
2022-09-26T06:59:25.373Z,4.18
2022-09-26T07:03:01.466Z,4.85
2022-09-26T07:06:35.222Z,5.05
2022-09-26T07:09:44.327Z,5.03
2022-09-26T07:13:10.938Z,4.75
2022-09-26T07:16:17.039Z,4.57
2022-09-26T07:19:32.731Z,4.72
2022-09-26T07:22:44.003Z,5.43
2022-09-26T07:25:50.587Z,5.05
2022-09-26T07:28:56.698Z,5.32
2022-09-26T07:32:04.673Z,4.75
2022-09-26T07:35:19.889Z,4.57
2022-09-26T07:38:26.184Z,5.10
2022-09-26T07:41:32.511Z,4.55
2022-09-26T07:45:19.663Z,4.18
2022-09-26T07:48:23.157Z,3.92
2022-09-26T07:52:04.609Z,3.40
2022-09-26T07:55:27.982Z,4.40
2022-09-26T07:58:48.676Z,4.18
2022-09-26T08:02:34.734Z,4.75
2022-09-26T08:05:43.367Z,3.97
2022-09-26T08:08:54.146Z,4.55
2022-09-26T08:12:18.824Z,4.72
2022-09-26T08:15:29.031Z,4.50
2022-09-26T08:18:42.833Z,4.60
2022-09-26T08:21:48.172Z,3.83
2022-09-26T08:24:55.737Z,4.40
2022-09-26T08:28:18.498Z,4.32
2022-09-26T08:31:24.625Z,5.10
2022-09-26T08:34:32.155Z,5.00
2022-09-26T08:38:09.311Z,4.32
2022-09-26T08:41:44.137Z,4.43
2022-09-26T08:46:04.723Z,4.20
2022-09-26T08:49:49.150Z,4.40
2022-09-26T08:53:28.985Z,4.72
2022-09-26T08:56:42.156Z,6.03
2022-09-26T08:59:49.850Z,6.60
2022-09-26T09:03:21.744Z,6.05
2022-09-26T09:06:29.213Z,6.10
2022-09-26T09:09:36.259Z,5.97
2022-09-26T09:13:23.153Z,5.68
2022-09-26T09:17:09.233Z,6.10
2022-09-26T09:21:21.857Z,7.35
2022-09-26T09:25:03.628Z,6.07
2022-09-26T09:28:45.743Z,6.45
2022-09-26T09:31:55.020Z,6.72
2022-09-26T09:35:24.712Z,5.90
2022-09-26T09:38:50.209Z,6.18
2022-09-26T09:42:31.080Z,6.43
2022-09-26T09:45:48.836Z,5.70
2022-09-26T09:49:10.647Z,5.93
2022-09-26T09:53:06.426Z,6.32
2022-09-26T09:56:43.560Z,6.20
2022-09-26T10:00:19.011Z,5.72
2022-09-26T10:04:04.942Z,5.75
2022-09-26T10:07:13.524Z,5.32
2022-09-26T10:11:21.494Z,5.90
2022-09-26T10:14:49.433Z,5.03
2022-09-26T10:18:26.753Z,4.82
2022-09-26T10:21:53.047Z,5.80
2022-09-26T10:25:28.372Z,4.97
2022-09-26T10:28:56.049Z,4.80
2022-09-26T10:32:04.504Z,5.03
2022-09-26T10:35:32.160Z,4.60
2022-09-26T10:39:10.145Z,5.43
2022-09-26T10:42:23.226Z,5.10
2022-09-26T10:45:38.901Z,4.70
2022-09-26T10:48:58.352Z,4.63
2022-09-26T10:52:35.191Z,4.72
2022-09-26T10:55:46.668Z,5.07
2022-09-26T10:59:06.204Z,4.78
2022-09-26T11:02:20.266Z,4.05
2022-09-26T11:05:45.120Z,7.55
2022-09-26T11:08:58.593Z,5.10
2022-09-26T11:12:30.049Z,4.13
2022-09-26T11:16:12.056Z,3.80
2022-09-26T11:19:39.853Z,3.00
2022-09-26T11:23:20.926Z,2.97
2022-09-26T11:26:57.378Z,2.42
2022-09-26T11:30:20.952Z,3.35
2022-09-26T11:33:34.302Z,3.60
2022-09-26T11:37:31.103Z,2.58
2022-09-26T11:41:14.620Z,2.30
2022-09-26T11:44:35.038Z,2.15
2022-09-26T11:48:28.744Z,2.30
2022-09-26T11:52:08.852Z,2.40
2022-09-26T11:55:29.503Z,2.60
2022-09-26T11:58:59.370Z,2.97
2022-09-26T12:02:53.013Z,2.60
2022-09-26T12:06:21.011Z,2.85
2022-09-26T12:09:47.555Z,2.67
2022-09-26T12:13:01.342Z,2.70
2022-09-26T12:16:24.877Z,2.88
2022-09-26T12:19:51.635Z,3.00
2022-09-26T12:23:12.554Z,3.42
2022-09-26T12:26:44.389Z,3.15
2022-09-26T12:30:16.512Z,3.30
2022-09-26T12:34:02.513Z,3.42
2022-09-26T12:37:47.047Z,21.08
2022-09-26T12:41:21.227Z,2.95
2022-09-26T12:44:54.765Z,4.70
2022-09-26T12:48:12.372Z,2.60
2022-09-26T12:51:49.692Z,2.33
2022-09-26T12:55:13.464Z,1.98
2022-09-26T12:58:27.396Z,2.30
2022-09-26T13:02:04.139Z,2.30
2022-09-26T13:06:08.343Z,2.10
2022-09-26T13:09:22.995Z,3.40
2022-09-26T13:13:03.208Z,2.35
2022-09-26T13:16:35.445Z,3.13
2022-09-26T13:19:53.108Z,3.17
2022-09-26T13:23:09.937Z,2.97
2022-09-26T13:26:22.974Z,2.88
2022-09-26T13:29:33.874Z,2.80
2022-09-26T13:33:00.444Z,2.83
2022-09-26T13:36:08.161Z,3.10
2022-09-26T13:39:34.061Z,2.70
2022-09-26T13:42:47.674Z,3.03
2022-09-26T13:46:16.369Z,2.58
2022-09-26T13:50:05.465Z,2.85
2022-09-26T13:54:17.270Z,2.90
2022-09-26T13:57:39.327Z,2.72
2022-09-26T14:00:53.489Z,2.83
2022-09-26T14:04:20.250Z,3.92
2022-09-26T14:08:11.781Z,2.95
2022-09-26T14:11:27.865Z,2.70
2022-09-26T14:14:46.427Z,2.97
2022-09-26T14:17:51.903Z,2.70
2022-09-26T14:21:08.413Z,2.97
2022-09-26T14:30:29.502Z,3.15
2022-09-26T14:33:35.336Z,3.20
2022-09-26T14:36:42.125Z,3.15
2022-09-26T14:40:00.456Z,3.47
2022-09-26T14:43:17.763Z,3.42
2022-09-26T14:46:24.555Z,3.72
2022-09-26T14:49:29.972Z,3.67
2022-09-26T14:52:39.353Z,4.20
2022-09-26T14:56:12.072Z,4.13
2022-09-26T14:59:40.269Z,5.35
2022-09-26T15:02:50.576Z,4.55
2022-09-26T15:06:00.242Z,4.40
2022-09-26T15:09:19.070Z,4.85
2022-09-26T15:12:52.318Z,4.97
2022-09-26T15:26:02.929Z,4.53
2022-09-26T15:29:11.149Z,4.68
2022-09-26T15:32:27.157Z,4.60
2022-09-26T15:35:34.333Z,4.43
2022-09-26T15:38:45.083Z,4.72
2022-09-26T15:42:12.670Z,5.10
2022-09-26T15:45:28.870Z,4.60
2022-09-26T15:48:35.091Z,4.68
2022-09-26T15:51:46.817Z,4.80
2022-09-26T15:54:58.681Z,4.80
2022-09-26T15:58:10.006Z,7.65
2022-09-26T16:01:36.022Z,6.28
2022-09-26T16:04:47.841Z,7.07
2022-09-26T16:07:56.072Z,5.80
2022-09-26T16:11:10.298Z,5.20
2022-09-26T16:14:38.383Z,6.10
2022-09-26T16:18:02.816Z,5.07
2022-09-26T16:21:26.442Z,5.35
2022-09-26T16:24:35.388Z,5.63
2022-09-26T16:27:45.911Z,5.72
2022-09-26T16:30:59.159Z,5.63
2022-09-26T16:34:20.667Z,5.78
2022-09-26T16:37:28.582Z,8.75
2022-09-26T16:40:42.127Z,13.60
2022-09-26T16:44:25.166Z,13.68
2022-09-26T16:47:44.846Z,9.27
2022-09-26T16:51:15.719Z,9.10
2022-09-26T16:54:23.355Z,7.40
2022-09-26T16:57:49.283Z,7.22
2022-09-26T17:01:21.321Z,7.22
2022-09-26T17:04:34.918Z,7.50
2022-09-26T17:07:47.929Z,7.07
2022-09-26T17:10:59.145Z,7.80
2022-09-26T17:19:37.259Z,12.65
2022-09-26T17:23:22.246Z,11.43
2022-09-26T17:37:00.055Z,7.45
2022-09-26T17:40:18.181Z,9.00
2022-09-26T17:43:25.023Z,13.13
2022-09-26T17:46:33.063Z,13.40
2022-09-26T17:49:44.071Z,13.73
2022-09-26T17:52:54.269Z,11.02
2022-09-26T17:56:03.874Z,10.93
2022-09-26T17:59:30.235Z,11.93
2022-09-26T18:02:46.644Z,20.55
2022-09-26T18:05:55.631Z,15.88
2022-09-26T18:09:10.638Z,10.45
2022-09-26T18:12:26.299Z,9.52
2022-09-26T18:15:33.427Z,9.07
2022-09-26T18:18:44.849Z,7.55
2022-09-26T18:21:56.697Z,7.60
2022-09-26T18:25:09.127Z,30.52
2022-09-26T18:28:20.102Z,19.77
2022-09-26T18:31:33.953Z,17.90
2022-09-26T18:34:39.638Z,8.55
2022-09-26T18:37:45.610Z,7.78
2022-09-26T18:40:55.852Z,8.00
2022-09-26T18:44:03.629Z,6.50
2022-09-26T18:47:15.922Z,5.80
2022-09-26T18:50:27.212Z,6.25
2022-09-26T18:57:16.679Z,23.58
2022-09-26T19:00:23.413Z,18.77
2022-09-26T19:03:33.686Z,16.27
2022-09-26T19:06:45.234Z,6.28
2022-09-26T19:09:51.767Z,5.68
2022-09-26T19:12:59.259Z,5.40
2022-09-26T19:16:05.441Z,5.18
2022-09-26T19:19:11.689Z,4.82
2022-09-26T19:22:18.118Z,4.82
2022-09-26T19:25:24.945Z,4.53
2022-09-26T19:28:35.089Z,4.78
2022-09-26T19:31:42.606Z,4.88
2022-09-26T19:34:54.753Z,5.30
2022-09-26T19:38:01.995Z,4.53
2022-09-26T19:41:08.066Z,4.80
2022-09-26T19:44:13.759Z,4.82
2022-09-26T19:47:22.778Z,3.90
2022-09-26T19:50:28.774Z,4.30
2022-09-26T19:53:35.729Z,4.32
2022-09-26T19:56:41.545Z,5.22
2022-09-26T19:59:48.897Z,5.78
2022-09-26T20:02:55.421Z,4.75
2022-09-26T20:06:01.858Z,6.45
2022-09-26T20:09:15.824Z,5.50
2022-09-26T20:12:21.467Z,4.55
2022-09-26T20:15:27.129Z,12.45
2022-09-26T20:18:33.119Z,6.32
2022-09-26T20:21:38.926Z,4.22
2022-09-26T20:24:47.810Z,5.25
2022-09-26T20:27:53.783Z,16.33
2022-09-26T20:31:00.242Z,12.10
2022-09-26T20:34:06.070Z,9.80
2022-09-26T20:37:14.390Z,11.30
2022-09-26T20:40:22.905Z,6.63
2022-09-26T20:43:34.276Z,5.50
2022-09-26T20:46:58.508Z,5.15
2022-09-26T20:50:05.184Z,5.88
2022-09-26T20:53:18.378Z,7.80
2022-09-26T20:56:24.603Z,8.38
2022-09-26T20:59:30.305Z,6.22
2022-09-26T21:02:39.955Z,6.20
2022-09-26T21:05:45.877Z,5.90
2022-09-26T21:08:51.990Z,5.60
2022-09-26T21:11:57.776Z,5.28
2022-09-26T21:15:03.732Z,5.85
2022-09-26T21:18:29.989Z,5.75
2022-09-26T21:21:35.919Z,5.35
2022-09-26T21:24:55.501Z,5.00
2022-09-26T21:28:16.590Z,5.50
2022-09-26T21:31:35.747Z,6.35
2022-09-26T21:34:42.279Z,8.90
2022-09-26T21:37:51.294Z,7.47
2022-09-26T21:40:59.256Z,7.15
2022-09-26T21:44:12.964Z,6.10
2022-09-26T21:47:19.062Z,5.22
2022-09-26T21:50:28.139Z,5.53
2022-09-26T21:53:47.176Z,4.60
2022-09-26T21:57:02.293Z,4.97
2022-09-26T22:00:11.646Z,5.38
2022-09-26T22:03:20.362Z,5.32
2022-09-26T22:06:26.341Z,5.55
2022-09-26T22:09:31.987Z,5.72
2022-09-26T22:12:37.489Z,5.65
2022-09-26T22:15:44.355Z,5.07
2022-09-26T22:18:50.099Z,5.15
2022-09-26T22:21:55.978Z,5.63
2022-09-26T22:25:04.491Z,5.40
2022-09-26T22:28:10.322Z,5.45
2022-09-26T22:31:17.778Z,5.30
2022-09-26T22:34:23.677Z,5.00
2022-09-26T22:37:29.238Z,4.97
2022-09-26T22:40:34.766Z,5.10
2022-09-26T22:43:40.181Z,5.20
2022-09-26T22:46:46.725Z,5.35
2022-09-26T22:49:52.638Z,5.70
2022-09-26T22:52:59.365Z,7.28
2022-09-26T22:56:06.750Z,9.02
2022-09-26T22:59:12.747Z,6.75
2022-09-26T23:02:18.765Z,7.75
2022-09-26T23:05:24.418Z,5.32
2022-09-26T23:08:30.035Z,4.90
2022-09-26T23:11:35.868Z,5.15
2022-09-26T23:14:41.497Z,4.90
2022-09-26T23:17:47.188Z,4.72
2022-09-26T23:20:53.109Z,4.60
2022-09-26T23:23:58.921Z,6.32
2022-09-26T23:27:05.345Z,6.00
2022-09-26T23:30:11.900Z,5.25
2022-09-26T23:33:17.717Z,14.35
2022-09-26T23:36:24.977Z,6.95
2022-09-26T23:39:31.252Z,5.72
2022-09-26T23:42:37.444Z,4.72
2022-09-26T23:45:43.890Z,5.35
2022-09-26T23:48:49.217Z,5.47
2022-09-26T23:51:55.118Z,5.93
2022-09-26T23:55:00.485Z,5.50
2022-09-26T23:58:06.416Z,4.40
